sensor_id;sensor_type;location;lat;lon;timestamp;temperature;humidity
63094;DHT22;49183;51.380;0.098;2023-05-29T06:26:03;11.40;75.90
63094;DHT22;49183;51.380;0.098;2023-05-29T06:28:31;11.70;75.10
63094;DHT22;49183;51.380;0.098;2023-05-29T06:30:59;11.80;74.10
63094;DHT22;49183;51.380;0.098;2023-05-29T06:33:27;11.90;73.30
63094;DHT22;49183;51.380;0.098;2023-05-29T06:35:57;12.00;72.90
63094;DHT22;49183;51.380;0.098;2023-05-29T06:38:26;12.20;72.00
63094;DHT22;49183;51.380;0.098;2023-05-29T06:40:54;12.30;69.80
63094;DHT22;49183;51.380;0.098;2023-05-29T06:43:22;12.30;69.30
63094;DHT22;49183;51.380;0.098;2023-05-29T06:45:55;12.30;68.50
63094;DHT22;49183;51.380;0.098;2023-05-29T06:48:22;12.30;68.50
63094;DHT22;49183;51.380;0.098;2023-05-29T06:50:50;12.30;69.00
63094;DHT22;49183;51.380;0.098;2023-05-29T06:53:37;12.40;68.30
63094;DHT22;49183;51.380;0.098;2023-05-29T06:56:06;12.50;67.20
63094;DHT22;49183;51.380;0.098;2023-05-29T06:58:34;12.50;67.40
63094;DHT22;49183;51.380;0.098;2023-05-29T07:01:03;12.60;67.00
63094;DHT22;49183;51.380;0.098;2023-05-29T07:03:36;12.70;67.10
63094;DHT22;49183;51.380;0.098;2023-05-29T07:06:05;12.80;64.90
63094;DHT22;49183;51.380;0.098;2023-05-29T07:08:33;12.70;64.30
63094;DHT22;49183;51.380;0.098;2023-05-29T07:11:01;12.70;64.30
63094;DHT22;49183;51.380;0.098;2023-05-29T07:13:29;12.60;64.90
63094;DHT22;49183;51.380;0.098;2023-05-29T07:15:57;12.70;65.10
63094;DHT22;49183;51.380;0.098;2023-05-29T07:18:33;12.80;64.90
63094;DHT22;49183;51.380;0.098;2023-05-29T07:21:02;13.00;63.00
63094;DHT22;49183;51.380;0.098;2023-05-29T07:23:31;13.10;63.90
63094;DHT22;49183;51.380;0.098;2023-05-29T07:25:59;13.30;63.90
63094;DHT22;49183;51.380;0.098;2023-05-29T07:28:29;13.50;63.60
63094;DHT22;49183;51.380;0.098;2023-05-29T07:30:57;13.70;63.70
63094;DHT22;49183;51.380;0.098;2023-05-29T07:33:25;13.90;62.80
63094;DHT22;49183;51.380;0.098;2023-05-29T07:35:55;14.20;62.20
63094;DHT22;49183;51.380;0.098;2023-05-29T07:38:24;14.40;60.80
63094;DHT22;49183;51.380;0.098;2023-05-29T07:40:52;14.40;59.10
63094;DHT22;49183;51.380;0.098;2023-05-29T07:43:36;14.30;59.50
63094;DHT22;49183;51.380;0.098;2023-05-29T07:46:06;14.40;58.40
63094;DHT22;49183;51.380;0.098;2023-05-29T07:48:37;14.40;59.50
63094;DHT22;49183;51.380;0.098;2023-05-29T07:51:05;14.60;59.50
63094;DHT22;49183;51.380;0.098;2023-05-29T07:53:40;14.60;59.00
63094;DHT22;49183;51.380;0.098;2023-05-29T07:56:08;14.70;59.70
63094;DHT22;49183;51.380;0.098;2023-05-29T07:58:35;14.80;58.70
63094;DHT22;49183;51.380;0.098;2023-05-29T08:01:03;14.90;58.60
63094;DHT22;49183;51.380;0.098;2023-05-29T08:03:33;14.90;58.00
63094;DHT22;49183;51.380;0.098;2023-05-29T08:06:26;15.00;57.90
63094;DHT22;49183;51.380;0.098;2023-05-29T08:08:58;14.90;55.10
63094;DHT22;49183;51.380;0.098;2023-05-29T08:11:26;14.30;56.60
63094;DHT22;49183;51.380;0.098;2023-05-29T08:13:54;13.80;57.70
63094;DHT22;49183;51.380;0.098;2023-05-29T08:16:47;13.40;58.70
63094;DHT22;49183;51.380;0.098;2023-05-29T08:57:23;14.10;61.10
63094;DHT22;49183;51.380;0.098;2023-05-29T08:59:52;14.30;59.50
63094;DHT22;49183;51.380;0.098;2023-05-29T09:02:20;14.30;59.50
63094;DHT22;49183;51.380;0.098;2023-05-29T09:04:48;14.00;59.70
63094;DHT22;49183;51.380;0.098;2023-05-29T09:07:22;14.00;59.60
63094;DHT22;49183;51.380;0.098;2023-05-29T09:09:50;14.10;60.00
63094;DHT22;49183;51.380;0.098;2023-05-29T09:16:10;14.20;59.60
63094;DHT22;49183;51.380;0.098;2023-05-29T09:18:41;14.30;59.80
63094;DHT22;49183;51.380;0.098;2023-05-29T09:21:27;14.50;58.90
63094;DHT22;49183;51.380;0.098;2023-05-29T09:24:03;14.60;59.50
63094;DHT22;49183;51.380;0.098;2023-05-29T09:26:31;14.70;58.50
63094;DHT22;49183;51.380;0.098;2023-05-29T09:28:59;14.70;57.20
63094;DHT22;49183;51.380;0.098;2023-05-29T09:31:27;14.60;57.00
63094;DHT22;49183;51.380;0.098;2023-05-29T09:33:56;14.40;57.90
63094;DHT22;49183;51.380;0.098;2023-05-29T09:37:11;14.40;57.50
63094;DHT22;49183;51.380;0.098;2023-05-29T09:39:45;14.30;58.50
63094;DHT22;49183;51.380;0.098;2023-05-29T09:42:24;14.30;58.60
63094;DHT22;49183;51.380;0.098;2023-05-29T09:44:52;14.30;60.00
63094;DHT22;49183;51.380;0.098;2023-05-29T09:47:21;14.40;59.50
63094;DHT22;49183;51.380;0.098;2023-05-29T09:49:50;14.50;59.60
63094;DHT22;49183;51.380;0.098;2023-05-29T09:52:21;14.70;58.70
63094;DHT22;49183;51.380;0.098;2023-05-29T09:54:50;15.00;57.90
63094;DHT22;49183;51.380;0.098;2023-05-29T09:57:18;15.10;57.40
63094;DHT22;49183;51.380;0.098;2023-05-29T09:59:46;15.30;57.00
63094;DHT22;49183;51.380;0.098;2023-05-29T10:02:19;15.40;57.30
63094;DHT22;49183;51.380;0.098;2023-05-29T10:04:48;15.40;56.00
63094;DHT22;49183;51.380;0.098;2023-05-29T10:07:28;15.30;57.60
63094;DHT22;49183;51.380;0.098;2023-05-29T10:10:02;15.50;55.50
63094;DHT22;49183;51.380;0.098;2023-05-29T10:12:32;15.60;55.80
63094;DHT22;49183;51.380;0.098;2023-05-29T10:15:02;15.80;56.00
63094;DHT22;49183;51.380;0.098;2023-05-29T10:17:35;16.00;55.20
63094;DHT22;49183;51.380;0.098;2023-05-29T10:20:05;16.10;55.90
63094;DHT22;49183;51.380;0.098;2023-05-29T10:22:40;16.10;55.00
63094;DHT22;49183;51.380;0.098;2023-05-29T10:25:14;15.70;54.80
63094;DHT22;49183;51.380;0.098;2023-05-29T10:27:44;15.40;54.70
63094;DHT22;49183;51.380;0.098;2023-05-29T10:30:37;15.40;55.40
63094;DHT22;49183;51.380;0.098;2023-05-29T10:38:24;15.60;55.10
63094;DHT22;49183;51.380;0.098;2023-05-29T10:40:54;15.60;55.90
63094;DHT22;49183;51.380;0.098;2023-05-29T10:43:32;15.50;56.10
63094;DHT22;49183;51.380;0.098;2023-05-29T10:46:03;15.60;56.80
63094;DHT22;49183;51.380;0.098;2023-05-29T10:48:38;15.80;56.50
63094;DHT22;49183;51.380;0.098;2023-05-29T10:51:07;15.90;56.00
63094;DHT22;49183;51.380;0.098;2023-05-29T10:53:35;16.10;54.70
63094;DHT22;49183;51.380;0.098;2023-05-29T10:56:08;16.20;54.80
63094;DHT22;49183;51.380;0.098;2023-05-29T10:58:38;16.20;54.60
63094;DHT22;49183;51.380;0.098;2023-05-29T11:01:08;16.30;54.50
63094;DHT22;49183;51.380;0.098;2023-05-29T11:03:36;16.30;53.90
63094;DHT22;49183;51.380;0.098;2023-05-29T11:06:06;16.30;53.80
63094;DHT22;49183;51.380;0.098;2023-05-29T11:08:55;16.30;54.40
63094;DHT22;49183;51.380;0.098;2023-05-29T11:11:32;16.20;54.00
63094;DHT22;49183;51.380;0.098;2023-05-29T11:14:06;15.90;54.70
63094;DHT22;49183;51.380;0.098;2023-05-29T11:19:07;15.80;55.70
63094;DHT22;49183;51.380;0.098;2023-05-29T11:22:00;15.80;55.40
63094;DHT22;49183;51.380;0.098;2023-05-29T11:24:33;16.00;55.30
63094;DHT22;49183;51.380;0.098;2023-05-29T11:27:05;16.30;54.70
63094;DHT22;49183;51.380;0.098;2023-05-29T11:29:35;16.60;52.80
63094;DHT22;49183;51.380;0.098;2023-05-29T11:32:06;16.60;53.70
63094;DHT22;49183;51.380;0.098;2023-05-29T11:34:41;16.60;53.20
63094;DHT22;49183;51.380;0.098;2023-05-29T11:37:08;16.80;53.40
63094;DHT22;49183;51.380;0.098;2023-05-29T11:39:37;17.00;52.70
63094;DHT22;49183;51.380;0.098;2023-05-29T11:42:05;17.10;51.20
63094;DHT22;49183;51.380;0.098;2023-05-29T11:44:34;17.10;50.50
63094;DHT22;49183;51.380;0.098;2023-05-29T11:47:04;17.10;51.40
63094;DHT22;49183;51.380;0.098;2023-05-29T11:49:34;17.00;51.90
63094;DHT22;49183;51.380;0.098;2023-05-29T11:52:13;17.00;52.30
63094;DHT22;49183;51.380;0.098;2023-05-29T11:54:44;17.20;53.50
63094;DHT22;49183;51.380;0.098;2023-05-29T11:57:20;17.40;51.80
63094;DHT22;49183;51.380;0.098;2023-05-29T11:59:52;17.50;51.50
63094;DHT22;49183;51.380;0.098;2023-05-29T12:02:25;17.70;51.70
63094;DHT22;49183;51.380;0.098;2023-05-29T12:05:02;17.80;51.00
63094;DHT22;49183;51.380;0.098;2023-05-29T12:07:31;17.90;49.90
63094;DHT22;49183;51.380;0.098;2023-05-29T12:10:12;17.90;49.20
63094;DHT22;49183;51.380;0.098;2023-05-29T12:12:41;17.90;49.50
63094;DHT22;49183;51.380;0.098;2023-05-29T12:15:09;17.90;49.20
63094;DHT22;49183;51.380;0.098;2023-05-29T12:17:37;17.90;49.30
63094;DHT22;49183;51.380;0.098;2023-05-29T12:20:05;18.00;49.80
63094;DHT22;49183;51.380;0.098;2023-05-29T12:22:37;18.10;50.70
63094;DHT22;49183;51.380;0.098;2023-05-29T12:25:19;18.30;49.50
63094;DHT22;49183;51.380;0.098;2023-05-29T12:27:48;18.30;49.30
63094;DHT22;49183;51.380;0.098;2023-05-29T12:32:59;18.10;48.70
63094;DHT22;49183;51.380;0.098;2023-05-29T12:35:29;18.00;49.90
63094;DHT22;49183;51.380;0.098;2023-05-29T12:38:02;18.00;49.10
63094;DHT22;49183;51.380;0.098;2023-05-29T12:40:32;18.00;49.60
63094;DHT22;49183;51.380;0.098;2023-05-29T12:43:06;17.90;50.30
63094;DHT22;49183;51.380;0.098;2023-05-29T12:45:34;18.20;50.90
63094;DHT22;49183;51.380;0.098;2023-05-29T12:48:04;18.40;50.40
63094;DHT22;49183;51.380;0.098;2023-05-29T12:50:34;18.30;51.10
63094;DHT22;49183;51.380;0.098;2023-05-29T12:55:38;18.60;50.10
63094;DHT22;49183;51.380;0.098;2023-05-29T12:58:11;18.80;49.10
63094;DHT22;49183;51.380;0.098;2023-05-29T13:00:40;18.70;48.90
63094;DHT22;49183;51.380;0.098;2023-05-29T13:03:09;18.60;49.40
63094;DHT22;49183;51.380;0.098;2023-05-29T13:05:38;18.70;50.50
63094;DHT22;49183;51.380;0.098;2023-05-29T13:08:07;18.90;50.50
63094;DHT22;49183;51.380;0.098;2023-05-29T13:10:36;19.10;49.90
63094;DHT22;49183;51.380;0.098;2023-05-29T13:13:04;19.30;48.60
63094;DHT22;49183;51.380;0.098;2023-05-29T13:15:31;19.20;48.70
63094;DHT22;49183;51.380;0.098;2023-05-29T13:18:01;19.20;48.80
63094;DHT22;49183;51.380;0.098;2023-05-29T13:20:29;19.20;48.70
63094;DHT22;49183;51.380;0.098;2023-05-29T13:23:00;19.30;48.70
63094;DHT22;49183;51.380;0.098;2023-05-29T13:25:27;19.50;48.70
63094;DHT22;49183;51.380;0.098;2023-05-29T13:27:55;19.70;48.10
63094;DHT22;49183;51.380;0.098;2023-05-29T13:30:23;19.70;47.10
63094;DHT22;49183;51.380;0.098;2023-05-29T13:32:52;19.70;46.00
63094;DHT22;49183;51.380;0.098;2023-05-29T13:35:20;19.50;46.50
63094;DHT22;49183;51.380;0.098;2023-05-29T13:37:48;19.50;46.20
63094;DHT22;49183;51.380;0.098;2023-05-29T13:40:16;19.40;47.00
63094;DHT22;49183;51.380;0.098;2023-05-29T13:42:44;19.50;48.20
63094;DHT22;49183;51.380;0.098;2023-05-29T13:45:12;19.60;47.40
63094;DHT22;49183;51.380;0.098;2023-05-29T13:47:40;19.80;46.50
63094;DHT22;49183;51.380;0.098;2023-05-29T13:50:08;19.70;46.50
63094;DHT22;49183;51.380;0.098;2023-05-29T13:52:36;19.80;46.30
63094;DHT22;49183;51.380;0.098;2023-05-29T13:55:04;19.80;46.00
63094;DHT22;49183;51.380;0.098;2023-05-29T13:57:36;19.70;45.00
63094;DHT22;49183;51.380;0.098;2023-05-29T14:00:07;19.50;45.10
63094;DHT22;49183;51.380;0.098;2023-05-29T14:02:35;19.50;45.00
63094;DHT22;49183;51.380;0.098;2023-05-29T14:05:04;19.50;43.70
63094;DHT22;49183;51.380;0.098;2023-05-29T14:07:33;19.60;43.70
63094;DHT22;49183;51.380;0.098;2023-05-29T14:10:01;19.50;43.50
63094;DHT22;49183;51.380;0.098;2023-05-29T14:12:30;19.50;43.40
63094;DHT22;49183;51.380;0.098;2023-05-29T14:14:58;19.50;43.10
63094;DHT22;49183;51.380;0.098;2023-05-29T14:17:25;19.70;43.50
63094;DHT22;49183;51.380;0.098;2023-05-29T14:19:53;19.80;44.00
63094;DHT22;49183;51.380;0.098;2023-05-29T14:22:22;19.60;44.90
63094;DHT22;49183;51.380;0.098;2023-05-29T14:24:50;19.60;45.20
63094;DHT22;49183;51.380;0.098;2023-05-29T14:27:17;19.70;44.50
63094;DHT22;49183;51.380;0.098;2023-05-29T14:29:46;19.80;44.90
63094;DHT22;49183;51.380;0.098;2023-05-29T14:32:14;19.90;45.00
63094;DHT22;49183;51.380;0.098;2023-05-29T14:34:42;19.90;44.60
63094;DHT22;49183;51.380;0.098;2023-05-29T14:37:09;19.80;44.90
63094;DHT22;49183;51.380;0.098;2023-05-29T14:39:37;19.80;44.40
63094;DHT22;49183;51.380;0.098;2023-05-29T14:42:05;19.80;44.30
63094;DHT22;49183;51.380;0.098;2023-05-29T14:44:34;19.90;45.10
63094;DHT22;49183;51.380;0.098;2023-05-29T14:47:02;19.80;44.60
63094;DHT22;49183;51.380;0.098;2023-05-29T14:49:29;19.80;44.90
63094;DHT22;49183;51.380;0.098;2023-05-29T14:51:59;19.70;44.30
63094;DHT22;49183;51.380;0.098;2023-05-29T14:54:27;19.50;44.00
63094;DHT22;49183;51.380;0.098;2023-05-29T14:56:55;19.50;43.70
63094;DHT22;49183;51.380;0.098;2023-05-29T14:59:25;19.40;44.00
63094;DHT22;49183;51.380;0.098;2023-05-29T15:01:52;19.40;44.80
63094;DHT22;49183;51.380;0.098;2023-05-29T15:04:21;19.40;45.30
63094;DHT22;49183;51.380;0.098;2023-05-29T15:06:49;19.40;44.90
63094;DHT22;49183;51.380;0.098;2023-05-29T15:09:32;19.30;43.90
63094;DHT22;49183;51.380;0.098;2023-05-29T15:12:00;19.20;44.00
63094;DHT22;49183;51.380;0.098;2023-05-29T15:14:28;19.30;43.80
63094;DHT22;49183;51.380;0.098;2023-05-29T15:16:56;19.30;43.60
63094;DHT22;49183;51.380;0.098;2023-05-29T15:19:23;19.30;43.80
63094;DHT22;49183;51.380;0.098;2023-05-29T15:21:51;19.40;44.40
63094;DHT22;49183;51.380;0.098;2023-05-29T15:24:19;19.40;44.60
63094;DHT22;49183;51.380;0.098;2023-05-29T15:26:46;19.50;44.70
63094;DHT22;49183;51.380;0.098;2023-05-29T15:29:14;19.60;45.20
63094;DHT22;49183;51.380;0.098;2023-05-29T15:31:42;19.40;44.90
63094;DHT22;49183;51.380;0.098;2023-05-29T15:34:10;19.50;44.90
63094;DHT22;49183;51.380;0.098;2023-05-29T15:36:37;19.70;45.20
63094;DHT22;49183;51.380;0.098;2023-05-29T15:39:05;19.70;45.20
63094;DHT22;49183;51.380;0.098;2023-05-29T15:41:33;19.80;45.10
63094;DHT22;49183;51.380;0.098;2023-05-29T15:44:01;19.80;43.70
63094;DHT22;49183;51.380;0.098;2023-05-29T15:46:29;19.80;43.80
63094;DHT22;49183;51.380;0.098;2023-05-29T15:48:57;19.60;43.90
63094;DHT22;49183;51.380;0.098;2023-05-29T15:51:25;19.70;44.10
63094;DHT22;49183;51.380;0.098;2023-05-29T15:53:54;19.80;45.20
63094;DHT22;49183;51.380;0.098;2023-05-29T15:56:22;19.80;44.90
63094;DHT22;49183;51.380;0.098;2023-05-29T15:58:54;20.30;44.70
63094;DHT22;49183;51.380;0.098;2023-05-29T16:01:22;20.40;42.50
63094;DHT22;49183;51.380;0.098;2023-05-29T16:03:49;20.40;42.60
63094;DHT22;49183;51.380;0.098;2023-05-29T16:06:18;20.30;42.60
63094;DHT22;49183;51.380;0.098;2023-05-29T16:08:45;20.30;42.70
63094;DHT22;49183;51.380;0.098;2023-05-29T16:11:14;20.10;43.20
63094;DHT22;49183;51.380;0.098;2023-05-29T16:13:42;19.80;43.30
63094;DHT22;49183;51.380;0.098;2023-05-29T16:16:10;19.80;43.20
63094;DHT22;49183;51.380;0.098;2023-05-29T16:18:37;19.80;43.50
63094;DHT22;49183;51.380;0.098;2023-05-29T16:21:05;20.00;43.40
63094;DHT22;49183;51.380;0.098;2023-05-29T16:23:33;19.90;43.70
63094;DHT22;49183;51.380;0.098;2023-05-29T16:26:01;19.90;43.80
63094;DHT22;49183;51.380;0.098;2023-05-29T16:28:28;19.80;43.40
63094;DHT22;49183;51.380;0.098;2023-05-29T16:30:57;19.60;42.80
63094;DHT22;49183;51.380;0.098;2023-05-29T16:33:24;19.40;43.70
63094;DHT22;49183;51.380;0.098;2023-05-29T16:35:52;19.40;43.40
63094;DHT22;49183;51.380;0.098;2023-05-29T16:38:20;19.40;43.80
63094;DHT22;49183;51.380;0.098;2023-05-29T16:40:47;19.60;43.50
63094;DHT22;49183;51.380;0.098;2023-05-29T16:43:15;19.70;42.70
63094;DHT22;49183;51.380;0.098;2023-05-29T16:45:43;19.80;42.50
63094;DHT22;49183;51.380;0.098;2023-05-29T16:48:11;19.80;41.90
63094;DHT22;49183;51.380;0.098;2023-05-29T16:50:38;19.80;42.50
63094;DHT22;49183;51.380;0.098;2023-05-29T16:53:06;19.80;42.60
63094;DHT22;49183;51.380;0.098;2023-05-29T16:55:33;19.70;42.10
63094;DHT22;49183;51.380;0.098;2023-05-29T16:58:01;19.70;42.40
63094;DHT22;49183;51.380;0.098;2023-05-29T17:00:29;19.80;42.10
63094;DHT22;49183;51.380;0.098;2023-05-29T17:02:56;20.00;41.50
63094;DHT22;49183;51.380;0.098;2023-05-29T17:05:25;20.20;41.40
63094;DHT22;49183;51.380;0.098;2023-05-29T17:07:52;20.10;41.00
63094;DHT22;49183;51.380;0.098;2023-05-29T17:10:20;20.00;41.50
63094;DHT22;49183;51.380;0.098;2023-05-29T17:12:48;19.90;41.40
63094;DHT22;49183;51.380;0.098;2023-05-29T17:15:15;19.90;42.50
63094;DHT22;49183;51.380;0.098;2023-05-29T17:17:43;19.90;42.40
63094;DHT22;49183;51.380;0.098;2023-05-29T17:20:11;19.90;42.40
63094;DHT22;49183;51.380;0.098;2023-05-29T17:22:39;20.00;42.50
63094;DHT22;49183;51.380;0.098;2023-05-29T17:25:07;20.10;43.00
63094;DHT22;49183;51.380;0.098;2023-05-29T17:27:35;20.30;42.60
63094;DHT22;49183;51.380;0.098;2023-05-29T17:30:03;20.60;43.00
63094;DHT22;49183;51.380;0.098;2023-05-29T17:32:30;20.70;41.60
63094;DHT22;49183;51.380;0.098;2023-05-29T17:35:01;20.60;41.80
63094;DHT22;49183;51.380;0.098;2023-05-29T17:37:29;20.50;41.70
63094;DHT22;49183;51.380;0.098;2023-05-29T17:39:57;20.30;42.10
63094;DHT22;49183;51.380;0.098;2023-05-29T17:42:25;20.30;41.80
63094;DHT22;49183;51.380;0.098;2023-05-29T17:44:52;20.10;41.50
63094;DHT22;49183;51.380;0.098;2023-05-29T17:47:20;19.80;41.10
63094;DHT22;49183;51.380;0.098;2023-05-29T17:49:48;19.50;41.50
63094;DHT22;49183;51.380;0.098;2023-05-29T17:52:15;19.30;41.60
63094;DHT22;49183;51.380;0.098;2023-05-29T17:54:43;19.20;42.20
63094;DHT22;49183;51.380;0.098;2023-05-29T17:57:11;19.20;42.20
63094;DHT22;49183;51.380;0.098;2023-05-29T17:59:41;19.30;41.80
63094;DHT22;49183;51.380;0.098;2023-05-29T18:02:09;19.40;41.70
63094;DHT22;49183;51.380;0.098;2023-05-29T18:04:41;19.40;41.70
63094;DHT22;49183;51.380;0.098;2023-05-29T18:07:08;19.50;41.00
63094;DHT22;49183;51.380;0.098;2023-05-29T18:09:38;19.70;40.80
63094;DHT22;49183;51.380;0.098;2023-05-29T18:12:06;19.70;40.50
63094;DHT22;49183;51.380;0.098;2023-05-29T18:14:34;19.70;39.90
63094;DHT22;49183;51.380;0.098;2023-05-29T18:17:02;19.60;40.60
63094;DHT22;49183;51.380;0.098;2023-05-29T18:19:29;19.60;40.80
63094;DHT22;49183;51.380;0.098;2023-05-29T18:21:57;19.40;41.20
63094;DHT22;49183;51.380;0.098;2023-05-29T18:24:25;19.20;41.20
63094;DHT22;49183;51.380;0.098;2023-05-29T18:26:52;19.10;41.70
63094;DHT22;49183;51.380;0.098;2023-05-29T18:29:20;19.20;41.60
63094;DHT22;49183;51.380;0.098;2023-05-29T18:31:48;19.40;41.60
63094;DHT22;49183;51.380;0.098;2023-05-29T18:34:15;19.40;41.30
63094;DHT22;49183;51.380;0.098;2023-05-29T18:36:43;19.50;41.40
63094;DHT22;49183;51.380;0.098;2023-05-29T18:39:11;19.30;41.60
63094;DHT22;49183;51.380;0.098;2023-05-29T18:41:39;18.90;42.20
63094;DHT22;49183;51.380;0.098;2023-05-29T18:44:08;18.40;42.90
63094;DHT22;49183;51.380;0.098;2023-05-29T18:46:36;17.90;43.60
63094;DHT22;49183;51.380;0.098;2023-05-29T18:49:04;17.60;44.20
63094;DHT22;49183;51.380;0.098;2023-05-29T18:51:31;17.30;45.10
63094;DHT22;49183;51.380;0.098;2023-05-29T18:53:59;17.10;45.70
63094;DHT22;49183;51.380;0.098;2023-05-29T18:56:27;16.80;46.10
63094;DHT22;49183;51.380;0.098;2023-05-29T18:58:55;16.80;46.20
63094;DHT22;49183;51.380;0.098;2023-05-29T19:01:24;16.50;46.40
63094;DHT22;49183;51.380;0.098;2023-05-29T19:03:59;16.40;46.90
63094;DHT22;49183;51.380;0.098;2023-05-29T19:06:29;16.30;47.10
63094;DHT22;49183;51.380;0.098;2023-05-29T19:08:57;16.30;47.70
63094;DHT22;49183;51.380;0.098;2023-05-29T19:11:25;16.20;48.60
63094;DHT22;49183;51.380;0.098;2023-05-29T19:13:53;16.20;49.40
63094;DHT22;49183;51.380;0.098;2023-05-29T19:16:20;16.10;49.80
63094;DHT22;49183;51.380;0.098;2023-05-29T19:18:49;16.00;50.30
63094;DHT22;49183;51.380;0.098;2023-05-29T19:21:18;15.90;50.50
63094;DHT22;49183;51.380;0.098;2023-05-29T19:23:45;15.80;50.70
63094;DHT22;49183;51.380;0.098;2023-05-29T19:26:13;15.80;50.50
63094;DHT22;49183;51.380;0.098;2023-05-29T19:28:41;15.80;50.20
63094;DHT22;49183;51.380;0.098;2023-05-29T19:31:09;15.80;50.10
63094;DHT22;49183;51.380;0.098;2023-05-29T19:33:37;15.70;50.60
63094;DHT22;49183;51.380;0.098;2023-05-29T19:36:05;15.70;51.10
63094;DHT22;49183;51.380;0.098;2023-05-29T19:38:34;15.70;51.00
63094;DHT22;49183;51.380;0.098;2023-05-29T19:41:01;15.70;51.00
63094;DHT22;49183;51.380;0.098;2023-05-29T19:43:29;15.60;51.10
63094;DHT22;49183;51.380;0.098;2023-05-29T19:45:57;15.40;51.40
63094;DHT22;49183;51.380;0.098;2023-05-29T19:48:35;15.30;51.50
63094;DHT22;49183;51.380;0.098;2023-05-29T19:51:05;15.30;51.90
63094;DHT22;49183;51.380;0.098;2023-05-29T19:53:34;15.20;51.90
63094;DHT22;49183;51.380;0.098;2023-05-29T19:56:02;15.10;52.10
63094;DHT22;49183;51.380;0.098;2023-05-29T19:58:29;15.00;52.60
63094;DHT22;49183;51.380;0.098;2023-05-29T20:00:57;14.80;52.80
63094;DHT22;49183;51.380;0.098;2023-05-29T20:03:26;14.60;53.30
